Time;durP1;ratioP1;P1;durP2;ratioP2;P2;SDS_P1;SDS_P2;PMS_P1;PMS_P2;Temp;Humidity;BMP_temperature;BMP_pressure;BME280_temperature;BME280_humidity;BME280_pressure;Samples;Min_cycle;Max_cycle;Signal;HPM_P1;HPM_P2
2023/02/28 00:00:48;;;;;;;1.17;0.63;;;9.20;95.10;;;9.83;47.14;102526.84;6041948;22;97543;-57
2023/02/28 00:03:14;;;;;;;0.50;0.40;;;9.10;99.40;;;9.99;46.80;102525.06;6051927;22;112017;-48
2023/02/28 00:05:39;;;;;;;2.20;0.97;;;9.30;99.90;;;9.99;40.15;102531.19;6045917;22;97501;-53
2023/02/28 00:08:05;;;;;;;2.53;0.63;;;9.50;94.60;;;9.75;41.38;102521.59;6051281;22;108918;-58
2023/02/28 00:10:32;;;;;;;3.03;0.80;;;9.10;92.80;;;9.81;45.28;102526.84;6043839;22;97551;-54
2023/02/28 00:13:06;;;;;;;0.77;0.30;;;9.00;98.30;;;10.17;46.48;102532.88;6050188;22;97977;-53
2023/02/28 00:15:33;;;;;;;1.43;0.40;;;9.60;99.90;;;10.31;45.95;102520.53;6047371;22;97542;-54
2023/02/28 00:17:58;;;;;;;2.50;1.00;;;9.80;98.10;;;10.67;44.01;102523.84;6050846;22;98110;-57
2023/02/28 00:20:24;;;;;;;0.30;0.27;;;10.30;97.30;;;10.82;44.77;102529.00;6049259;22;97788;-58
2023/02/28 00:22:52;;;;;;;0.83;0.50;;;10.60;99.00;;;10.99;43.81;102519.22;6045178;22;98083;-54
2023/02/28 00:25:23;;;;;;;0.83;0.40;;;10.70;93.40;;;10.99;43.88;102521.88;6049412;22;97583;-51
2023/02/28 00:27:49;;;;;;;0.40;0.37;;;10.60;97.60;;;11.05;43.27;102515.66;6042058;22;98422;-58
2023/02/28 00:30:18;;;;;;;1.03;0.63;;;10.70;93.80;;;11.22;44.06;102520.78;6052014;22;98924;-57
2023/02/28 00:32:45;;;;;;;1.40;1.00;;;10.80;98.30;;;11.47;41.11;102526.72;6044613;22;97859;-57
2023/02/28 00:35:11;;;;;;;0.40;0.20;;;11.20;94.60;;;11.54;43.49;102523.13;6051575;22;98905;-58
2023/02/28 00:37:37;;;;;;;2.10;0.90;;;11.20;98.10;;;11.60;42.58;102523.94;6037043;22;97471;-58
2023/02/28 00:40:06;;;;;;;0.47;0.30;;;11.40;91.90;;;11.60;43.46;102526.59;6042145;22;98713;-53
2023/02/28 00:42:35;;;;;;;0.70;0.70;;;11.20;96.30;;;11.70;42.75;102529.13;6026000;22;97423;-53
2023/02/28 00:45:03;;;;;;;1.17;0.40;;;11.30;95.50;;;11.84;42.91;102528.09;6040091;22;97612;-51
2023/02/28 00:47:29;;;;;;;0.77;0.40;;;11.60;95.50;;;11.82;42.81;102529.03;6028891;23;98540;-58
2023/02/28 00:49:55;;;;;;;0.97;0.67;;;11.50;95.60;;;11.68;40.54;102526.50;6030980;22;102787;-57
2023/02/28 00:52:21;;;;;;;0.87;0.70;;;11.30;90.80;;;11.37;40.06;102525.91;6037361;22;103871;-53
2023/02/28 00:54:47;;;;;;;0.60;0.47;;;10.80;91.10;;;11.31;43.76;102526.00;6036684;22;97596;-51
2023/02/28 00:57:12;;;;;;;0.50;0.50;;;10.60;98.00;;;11.12;41.89;102524.38;6037085;22;98446;-61
2023/02/28 00:59:38;;;;;;;1.17;0.50;;;10.30;92.40;;;10.93;44.36;102519.25;6034760;22;97085;-56
2023/02/28 01:02:04;;;;;;;3.60;0.77;;;10.10;98.00;;;11.09;44.51;102524.41;6040732;22;104620;-57
2023/02/28 01:04:30;;;;;;;0.97;0.63;;;10.40;99.00;;;10.86;36.76;102532.53;6043053;22;110642;-56
2023/02/28 01:06:56;;;;;;;2.50;0.67;;;10.30;91.70;;;10.74;42.51;102528.19;6056492;22;103994;-53
2023/02/28 01:09:21;;;;;;;2.03;0.73;;;10.10;94.10;;;10.80;43.21;102533.44;6042992;22;97415;-57
2023/02/28 01:11:47;;;;;;;1.67;0.90;;;10.10;94.40;;;10.77;43.73;102528.19;6035850;22;97641;-56
2023/02/28 01:14:16;;;;;;;1.67;0.93;;;10.00;95.40;;;10.49;41.16;102522.19;6038270;22;100881;-56
2023/02/28 01:16:42;;;;;;;0.67;0.60;;;9.80;92.70;;;10.57;44.63;102530.09;6057310;22;98095;-52
2023/02/28 01:19:08;;;;;;;1.03;0.80;;;9.80;96.60;;;10.52;45.12;102521.28;6063521;23;97856;-56
2023/02/28 01:21:37;;;;;;;1.20;0.87;;;9.80;97.20;;;10.58;45.62;102524.78;6059558;22;97264;-57
2023/02/28 01:24:05;;;;;;;0.43;0.30;;;9.90;98.20;;;10.86;44.91;102533.41;6070794;22;97132;-56
2023/02/28 01:26:31;;;;;;;0.57;0.40;;;10.30;99.90;;;10.82;44.63;102526.38;6056473;22;99499;-60
2023/02/28 01:28:57;;;;;;;1.20;1.00;;;10.30;97.50;;;10.82;41.69;102529.00;6061822;22;99669;-57
2023/02/28 01:31:24;;;;;;;1.00;0.50;;;10.30;93.90;;;10.95;44.72;102525.41;6067595;22;97173;-57
2023/02/28 01:33:50;;;;;;;0.87;0.73;;;10.40;99.90;;;10.92;42.53;102524.56;6063139;22;97621;-55
2023/02/28 01:36:22;;;;;;;1.20;0.67;;;10.40;92.70;;;10.73;40.61;102529.09;6067235;22;99399;-56
2023/02/28 01:38:49;;;;;;;1.90;0.83;;;10.10;92.30;;;10.63;43.77;102530.03;6062518;22;97449;-56
2023/02/28 01:41:23;;;;;;;1.23;0.30;;;9.80;93.90;;;10.52;44.95;102519.53;6067685;22;97534;-58
2023/02/28 01:43:49;;;;;;;1.00;0.80;;;9.60;94.70;;;10.11;39.21;102524.97;6062764;22;97338;-57
2023/02/28 01:46:16;;;;;;;0.90;0.80;;;9.30;91.80;;;9.78;40.85;102532.13;6067147;22;97494;-54
2023/02/28 01:48:54;;;;;;;1.10;0.90;;;8.90;92.70;;;9.30;39.50;102522.56;6084181;22;99940;-52
2023/02/28 01:51:37;;;;;;;2.93;0.63;;;8.50;93.30;;;8.79;39.39;102520.78;6066993;22;97464;-53
2023/02/28 01:54:13;;;;;;;1.90;0.90;;;7.90;93.90;;;8.32;40.26;102526.78;6062755;22;98480;-52
2023/02/28 01:56:46;;;;;;;0.87;0.60;;;7.50;95.10;;;8.00;43.01;102524.91;6055219;22;98084;-57
2023/02/28 01:59:22;;;;;;;0.70;0.60;;;7.10;95.90;;;7.79;41.73;102519.53;6067983;22;97888;-56
2023/02/28 02:01:48;;;;;;;0.87;0.60;;;7.00;96.50;;;7.69;48.34;102518.63;6063889;22;97766;-57
2023/02/28 02:04:14;;;;;;;2.30;0.73;;;6.80;98.10;;;7.53;45.01;102515.91;6066871;22;97853;-55
2023/02/28 02:06:45;;;;;;;1.23;0.77;;;6.70;97.30;;;7.50;50.39;102510.59;6058937;22;123211;-58
2023/02/28 02:09:12;;;;;;;1.73;0.83;;;6.60;99.40;;;7.46;46.60;102507.97;6065056;23;97624;-56
2023/02/28 02:11:42;;;;;;;2.00;1.10;;;6.70;97.00;;;7.50;43.76;102502.72;6062868;22;117565;-55
2023/02/28 02:14:41;;;;;;;1.57;0.70;;;6.80;98.00;;;7.23;42.58;102506.91;6066910;22;97330;-55
2023/02/28 02:17:34;;;;;;;1.07;0.80;;;6.60;97.40;;;7.22;46.96;102501.66;6061378;22;101928;-57
2023/02/28 02:20:44;;;;;;;0.60;0.57;;;6.40;98.80;;;7.25;46.20;102493.81;6061243;23;101862;-58
2023/02/28 02:23:19;;;;;;;0.87;0.53;;;6.50;99.90;;;7.16;49.24;102499.88;6030157;22;97441;-56
2023/02/28 02:26:19;;;;;;;1.17;0.90;;;6.40;98.30;;;7.15;48.18;102498.13;6064397;22;97096;-53
2023/02/28 02:28:59;;;;;;;2.13;0.80;;;6.30;98.40;;;6.82;43.61;102491.75;6054411;22;104975;-54
2023/02/28 02:32:07;;;;;;;1.73;1.10;;;6.10;98.50;;;6.61;43.90;102494.13;6067544;22;97793;-55
2023/02/28 02:35:03;;;;;;;0.83;0.57;;;5.90;98.50;;;6.47;44.50;102495.75;6057081;22;97218;-56
2023/02/28 02:37:55;;;;;;;1.70;0.80;;;5.80;98.90;;;6.31;44.99;102485.97;6066474;22;97675;-55
2023/02/28 02:40:27;;;;;;;1.83;1.00;;;5.70;99.20;;;6.24;45.24;102487.66;6064588;22;100102;-57
2023/02/28 02:43:01;;;;;;;0.37;0.37;;;5.60;99.10;;;6.14;45.70;102484.03;6060518;22;97510;-57
2023/02/28 02:46:02;;;;;;;1.40;0.87;;;5.50;99.50;;;6.00;45.37;102490.84;6067893;22;97948;-55
2023/02/28 02:48:33;;;;;;;0.90;0.60;;;5.40;99.50;;;5.81;45.16;102486.22;6060576;22;97665;-54
2023/02/28 02:51:05;;;;;;;1.00;0.90;;;5.30;99.80;;;5.71;45.69;102479.09;6063002;22;101676;-57
2023/02/28 02:53:36;;;;;;;1.80;0.60;;;5.20;99.80;;;5.74;50.45;102489.59;6059414;22;97996;-57
2023/02/28 02:56:05;;;;;;;0.63;0.60;;;5.20;99.90;;;5.62;46.23;102485.06;6085977;22;97465;-56
2023/02/28 02:58:41;;;;;;;2.73;0.73;;;5.10;99.90;;;5.59;46.53;102491.16;6060773;22;100858;-57
2023/02/28 03:01:10;;;;;;;0.83;0.50;;;5.10;99.90;;;5.47;46.29;102484.84;6065743;22;102209;-46
2023/02/28 03:03:37;;;;;;;1.90;1.13;;;5.00;99.90;;;5.37;46.34;102481.25;6055749;22;98597;-49
2023/02/28 03:06:04;;;;;;;0.90;0.60;;;4.90;99.90;;;5.36;47.09;102487.34;6065495;22;103053;-51
2023/02/28 03:08:35;;;;;;;2.67;0.67;;;4.80;99.90;;;5.25;46.62;102483.69;6067301;22;96759;-48
2023/02/28 03:11:12;;;;;;;2.53;0.77;;;4.80;99.90;;;5.21;48.00;102481.88;6062485;22;100014;-49
2023/02/28 03:13:52;;;;;;;2.00;0.90;;;4.70;99.90;;;5.18;47.82;102479.19;6058355;22;97747;-50
2023/02/28 03:16:26;;;;;;;1.73;0.80;;;4.70;99.90;;;5.15;47.79;102481.75;6068265;22;98165;-49
2023/02/28 03:19:15;;;;;;;1.33;0.97;;;4.60;99.90;;;5.12;48.66;102481.72;6084875;22;97489;-48
2023/02/28 03:22:19;;;;;;;1.50;0.50;;;4.60;99.90;;;5.10;47.64;102473.84;6061533;22;100282;-49
2023/02/28 03:25:31;;;;;;;0.63;0.60;;;4.60;99.90;;;5.07;49.24;102472.06;6049080;22;97239;-49
2023/02/28 03:28:22;;;;;;;0.93;0.63;;;4.60;99.90;;;5.00;48.34;102478.03;6063764;22;97641;-51
2023/02/28 03:30:59;;;;;;;4.37;0.87;;;4.50;99.90;;;5.03;48.14;102472.84;6061331;22;97404;-47
2023/02/28 03:33:46;;;;;;;1.37;0.63;;;4.50;99.90;;;4.98;47.81;102479.75;6063884;22;97361;-47
2023/02/28 03:36:20;;;;;;;0.80;0.67;;;4.50;99.90;;;5.01;47.15;102471.97;6063474;22;100625;-48
2023/02/28 03:39:03;;;;;;;1.13;0.90;;;4.50;99.90;;;5.02;47.18;102475.44;6062491;22;97740;-46
2023/02/28 03:41:54;;;;;;;1.53;0.97;;;4.60;99.90;;;5.14;50.38;102480.00;6067566;22;97363;-45
2023/02/28 03:44:29;;;;;;;1.07;0.97;;;4.60;99.90;;;5.15;51.86;102471.28;6064867;22;103245;-46
2023/02/28 03:47:12;;;;;;;0.50;0.50;;;4.60;99.90;;;5.16;52.37;102483.53;6058278;22;97542;-49
2023/02/28 03:49:48;;;;;;;2.80;1.23;;;4.50;99.90;;;5.05;48.40;102471.13;6058617;22;97576;-47
2023/02/28 03:52:14;;;;;;;1.60;0.63;;;4.50;99.90;;;5.03;47.34;102472.84;6069665;22;97733;-50
2023/02/28 03:54:50;;;;;;;2.57;0.77;;;4.50;99.90;;;4.94;47.71;102479.69;6059764;22;97940;-50
2023/02/28 03:57:48;;;;;;;2.03;0.87;;;4.50;99.90;;;4.93;49.06;102478.81;6061700;23;98927;-51
2023/02/28 04:00:30;;;;;;;1.90;1.00;;;4.40;99.90;;;4.86;48.06;102479.56;6059233;23;97979;-48
2023/02/28 04:02:56;;;;;;;2.00;0.80;;;4.30;99.90;;;4.89;51.34;102484.84;6060179;23;98250;-49
2023/02/28 04:05:22;;;;;;;1.07;0.73;;;4.30;99.90;;;4.85;48.56;102477.78;6068861;22;99938;-49
2023/02/28 04:07:49;;;;;;;0.67;0.50;;;4.30;99.90;;;4.85;49.17;102484.75;6056816;22;97076;-49
2023/02/28 04:10:16;;;;;;;1.50;0.67;;;4.30;99.90;;;4.92;49.57;102479.69;6066142;22;97258;-50
2023/02/28 04:12:42;;;;;;;0.80;0.70;;;4.40;99.90;;;5.00;49.44;102483.28;6060041;22;97335;-50
2023/02/28 04:15:08;;;;;;;0.97;0.70;;;4.40;99.90;;;5.15;49.44;102487.00;6066271;22;105583;-48
2023/02/28 04:17:34;;;;;;;1.50;0.43;;;4.50;99.90;;;5.64;56.74;102489.50;6059849;22;98030;-45
2023/02/28 04:19:59;;;;;;;0.70;0.70;;;4.90;99.90;;;5.92;48.40;102490.75;6063362;22;97494;-49
2023/02/28 04:22:28;;;;;;;0.67;0.53;;;5.30;99.90;;;6.08;48.33;102490.97;6062874;22;108231;-49
2023/02/28 04:24:54;;;;;;;0.53;0.47;;;5.40;99.90;;;6.50;51.52;102485.28;6063494;22;98076;-50
2023/02/28 04:27:20;;;;;;;0.20;0.20;;;5.90;99.90;;;6.91;53.99;102487.41;6063100;22;97432;-48
2023/02/28 04:29:46;;;;;;;1.47;1.00;;;6.20;99.90;;;7.09;45.83;102487.59;6058564;22;97553;-46
2023/02/28 04:32:12;;;;;;;0.87;0.87;;;6.50;99.90;;;7.07;45.45;102489.28;6065531;22;108426;-51
2023/02/28 04:34:39;;;;;;;0.80;0.70;;;6.40;98.20;;;7.24;43.73;102498.19;6059752;22;98359;-48
2023/02/28 04:37:05;;;;;;;0.70;0.53;;;6.60;98.50;;;7.29;43.85;102495.59;6062986;22;97087;-49
2023/02/28 04:39:35;;;;;;;1.33;0.80;;;6.60;98.30;;;7.67;49.04;102498.47;6064147;22;97403;-48
2023/02/28 04:42:01;;;;;;;0.70;0.60;;;6.90;99.90;;;7.66;45.82;102492.31;6059507;22;97521;-47
2023/02/28 04:44:27;;;;;;;1.20;0.63;;;7.00;98.40;;;8.11;50.93;102510.94;6066316;22;106284;-48
2023/02/28 04:46:52;;;;;;;1.20;0.90;;;7.40;99.90;;;8.07;43.44;102505.66;6054318;22;97441;-48
2023/02/28 04:49:18;;;;;;;0.73;0.70;;;7.50;96.70;;;8.22;48.04;102496.06;6066609;22;122226;-47
2023/02/28 04:51:44;;;;;;;2.80;1.70;;;7.50;99.90;;;8.31;49.37;102501.38;6063147;22;99354;-48
2023/02/28 04:54:10;;;;;;;0.80;0.40;;;7.50;99.40;;;8.44;49.62;102495.31;6066785;22;99006;-50
2023/02/28 04:56:35;;;;;;;2.97;0.90;;;7.60;99.90;;;8.71;46.79;102501.50;6059487;22;97173;-46
2023/02/28 04:59:01;;;;;;;0.50;0.47;;;8.00;99.10;;;8.77;47.57;102497.09;6065422;22;99190;-49
2023/02/28 05:01:32;;;;;;;2.50;1.00;;;8.00;97.30;;;8.98;48.31;102493.63;6062811;22;97308;-48
2023/02/28 05:04:01;;;;;;;1.90;0.70;;;8.20;99.90;;;8.92;47.47;102498.84;6059295;22;97479;-51
2023/02/28 05:06:31;;;;;;;0.60;0.53;;;8.10;98.80;;;8.77;46.93;102499.72;6065340;22;97737;-51
2023/02/28 05:08:57;;;;;;;1.40;1.10;;;7.90;96.90;;;8.97;42.82;102501.47;6059923;22;97676;-48
2023/02/28 05:11:34;;;;;;;1.33;0.33;;;8.30;95.90;;;9.21;48.06;102507.63;6065448;22;97899;-47
2023/02/28 05:14:05;;;;;;;1.17;0.77;;;8.50;99.90;;;9.61;40.65;102507.59;6061325;22;103090;-49
2023/02/28 05:16:32;;;;;;;1.63;0.87;;;9.30;97.90;;;9.74;44.14;102509.31;6061691;22;97480;-49
2023/02/28 05:18:58;;;;;;;0.93;0.40;;;9.30;95.50;;;10.07;46.20;102507.41;6062532;22;97976;-47
2023/02/28 05:21:34;;;;;;;1.70;0.67;;;9.70;99.50;;;10.24;45.74;102513.53;6066827;23;97662;-48
2023/02/28 05:24:11;;;;;;;0.60;0.60;;;9.90;99.90;;;10.37;45.45;102517.84;6061408;22;101520;-48
2023/02/28 05:26:40;;;;;;;0.53;0.50;;;9.90;99.40;;;10.46;45.11;102518.69;6055900;22;97168;-53
2023/02/28 05:29:06;;;;;;;2.10;0.40;;;9.80;97.60;;;10.68;44.99;102513.25;6063568;22;97692;-46
2023/02/28 05:31:32;;;;;;;1.43;0.60;;;10.10;99.90;;;10.77;44.20;102514.97;6068631;22;97519;-48
2023/02/28 05:33:58;;;;;;;1.73;0.50;;;10.40;95.80;;;10.79;44.38;102514.97;6057959;22;102014;-48
2023/02/28 05:36:24;;;;;;;0.40;0.40;;;10.20;98.30;;;10.84;44.50;102506.09;6063863;22;114709;-51
2023/02/28 05:38:51;;;;;;;0.40;0.40;;;10.30;98.00;;;11.06;44.26;102513.88;6059112;22;97570;-50
2023/02/28 05:41:19;;;;;;;0.60;0.40;;;10.60;99.90;;;11.25;43.61;102521.63;6065941;22;97424;-50
2023/02/28 05:43:46;;;;;;;0.40;0.27;;;10.90;99.20;;;11.40;43.12;102519.72;6057450;22;98212;-51
2023/02/28 05:46:13;;;;;;;0.60;0.40;;;11.10;98.80;;;11.51;42.93;102524.03;6064669;22;97703;-52
2023/02/28 05:48:41;;;;;;;0.20;0.20;;;11.20;96.50;;;11.57;42.90;102523.06;6030234;22;97541;-48
2023/02/28 05:51:08;;;;;;;0.37;0.37;;;11.20;96.10;;;11.74;42.78;102525.56;6068377;22;97223;-50
2023/02/28 05:53:34;;;;;;;1.27;0.33;;;11.40;98.50;;;11.91;42.30;102523.63;6061518;22;97711;-51
2023/02/28 05:56:00;;;;;;;0.20;0.10;;;11.70;96.60;;;11.97;42.19;102522.69;6057516;22;99061;-49
2023/02/28 05:58:30;;;;;;;1.40;0.37;;;11.80;95.90;;;12.08;41.79;102526.94;6068629;22;97343;-51
2023/02/28 06:00:57;;;;;;;0.20;0.20;;;11.90;97.10;;;12.43;41.30;102522.94;6065956;22;97888;-51
2023/02/28 06:03:23;;;;;;;1.07;0.50;;;12.40;96.30;;;12.62;40.86;102524.47;6067423;22;97338;-47
2023/02/28 06:05:50;;;;;;;1.57;1.03;;;12.70;95.10;;;12.72;40.62;102519.88;6062259;22;97363;-48
2023/02/28 06:08:16;;;;;;;1.80;1.17;;;12.90;92.70;;;12.55;39.90;102517.50;6070269;22;97848;-50
2023/02/28 06:10:42;;;;;;;2.23;1.30;;;12.50;90.10;;;12.27;40.13;102521.41;6065510;22;97729;-47
2023/02/28 06:13:08;;;;;;;0.93;0.40;;;11.90;87.20;;;11.97;41.63;102525.31;6067964;22;97687;-47
2023/02/28 06:15:33;;;;;;;1.90;0.90;;;11.20;90.60;;;11.60;38.42;102531.88;6067108;22;96918;-57
2023/02/28 06:17:59;;;;;;;0.43;0.30;;;10.70;86.50;;;11.52;42.71;102520.50;6066493;22;96920;-49
2023/02/28 06:20:30;;;;;;;1.33;0.60;;;10.60;97.90;;;11.42;42.80;102529.38;6092955;22;103781;-50
2023/02/28 06:22:58;;;;;;;0.93;0.73;;;10.60;95.80;;;11.40;42.81;102533.81;6064291;22;97941;-48
2023/02/28 06:25:25;;;;;;;0.87;0.50;;;10.70;94.10;;;11.27;43.15;102534.81;6088616;22;98140;-47
2023/02/28 06:27:52;;;;;;;0.63;0.10;;;10.50;95.30;;;11.40;43.40;102535.59;6064591;22;97081;-50
2023/02/28 06:30:17;;;;;;;0.70;0.40;;;10.80;98.60;;;11.56;42.63;102542.47;6071643;22;97748;-48
2023/02/28 06:32:43;;;;;;;1.03;0.70;;;11.10;96.90;;;11.49;36.05;102544.31;6062238;22;110795;-52
2023/02/28 06:35:10;;;;;;;0.67;0.50;;;11.20;88.40;;;11.30;42.22;102548.03;6068368;22;98086;-50
2023/02/28 06:37:35;;;;;;;1.07;0.70;;;10.70;90.00;;;10.91;41.85;102550.06;6086474;22;97148;-51
2023/02/28 06:40:01;;;;;;;1.33;0.57;;;10.10;90.20;;;10.96;43.86;102553.56;6068312;22;97247;-48
2023/02/28 06:42:30;;;;;;;1.57;0.93;;;10.10;95.60;;;10.86;39.85;102554.53;6069048;22;96706;-49
2023/02/28 06:44:57;;;;;;;0.73;0.60;;;10.10;90.60;;;11.00;43.10;102557.94;6065092;22;97157;-49
2023/02/28 06:47:24;;;;;;;0.70;0.40;;;10.40;97.40;;;11.30;43.62;102561.22;6068138;22;97066;-47
2023/02/28 06:49:50;;;;;;;3.33;1.00;;;10.90;98.90;;;11.36;42.00;102560.28;6067125;22;97978;-46
2023/02/28 06:52:16;;;;;;;1.33;0.43;;;11.00;91.00;;;11.55;42.35;102562.75;6067824;22;98218;-47
2023/02/28 06:54:42;;;;;;;1.20;0.27;;;11.20;95.60;;;11.61;42.84;102573.28;6061550;22;114808;-48
2023/02/28 06:57:08;;;;;;;2.73;0.67;;;11.30;96.60;;;11.48;40.09;102569.00;6069843;22;98281;-50
2023/02/28 06:59:35;;;;;;;1.03;0.50;;;11.10;91.40;;;11.45;42.25;102574.31;6062654;22;101316;-54
2023/02/28 07:02:01;;;;;;;0.40;0.30;;;11.00;92.40;;;11.48;42.70;102579.56;6066779;22;97817;-49
2023/02/28 07:04:28;;;;;;;1.10;0.40;;;11.00;96.00;;;11.66;42.14;102581.16;6069115;22;98454;-47
2023/02/28 07:06:56;;;;;;;0.73;0.70;;;11.40;93.90;;;11.55;36.83;102575.97;6061038;22;98261;-48
2023/02/28 07:09:23;;;;;;;1.37;0.40;;;11.30;84.00;;;11.72;42.47;102574.94;6070489;22;97568;-49
2023/02/28 07:11:48;;;;;;;0.70;0.40;;;11.40;95.60;;;11.82;42.28;102587.19;6061707;22;97437;-48
2023/02/28 07:14:14;;;;;;;0.50;0.47;;;11.60;93.90;;;11.93;40.63;102580.03;6071437;22;111524;-48
2023/02/28 07:16:40;;;;;;;1.27;0.57;;;11.70;89.50;;;11.96;42.04;102584.41;6063104;22;97558;-50
2023/02/28 07:19:06;;;;;;;0.20;0.20;;;11.60;96.70;;;12.20;41.30;102595.59;6066366;22;97927;-51
2023/02/28 07:21:31;;;;;;;0.83;0.50;;;12.00;96.60;;;12.48;40.83;102582.91;6066794;22;98892;-50
2023/02/28 07:23:57;;;;;;;0.60;0.27;;;12.50;95.20;;;12.64;40.06;102582.69;6064267;22;105277;-48
2023/02/28 07:26:23;;;;;;;1.37;0.80;;;12.80;93.20;;;12.75;38.47;102578.13;6070011;22;97320;-46
2023/02/28 07:28:49;;;;;;;0.97;0.63;;;12.90;87.70;;;12.72;33.01;102579.00;6087921;22;104811;-46
2023/02/28 07:31:17;;;;;;;1.00;0.40;;;12.90;84.20;;;12.77;40.07;102589.56;6069501;22;98049;-46
2023/02/28 07:33:43;;;;;;;0.30;0.23;;;12.80;92.60;;;12.71;40.06;102577.28;6033609;22;98690;-47
2023/02/28 07:36:15;;;;;;;0.30;0.20;;;12.60;93.70;;;13.02;40.12;102588.31;6070704;22;108399;-46
2023/02/28 07:38:43;;;;;;;0.73;0.57;;;13.00;94.50;;;13.13;39.42;102588.13;6065564;22;97707;-48
2023/02/28 07:41:10;;;;;;;0.30;0.30;;;13.30;92.70;;;13.23;39.57;102595.06;6070576;22;97633;-46
2023/02/28 07:43:36;;;;;;;1.27;0.17;;;13.50;93.20;;;13.38;39.02;102586.88;6066971;22;97634;-50
2023/02/28 07:46:09;;;;;;;0.33;0.20;;;13.60;93.30;;;13.55;38.88;102588.34;6070676;22;97020;-49
2023/02/28 07:48:34;;;;;;;1.13;0.33;;;13.90;92.60;;;13.60;38.25;102591.81;6063420;22;97722;-49
2023/02/28 07:51:01;;;;;;;1.13;0.37;;;13.90;91.80;;;13.68;38.13;102595.19;6073107;22;118394;-48
2023/02/28 07:53:28;;;;;;;0.30;0.30;;;14.00;91.90;;;13.68;38.15;102589.88;6070823;22;98146;-48
2023/02/28 07:55:58;;;;;;;0.97;0.30;;;13.90;91.70;;;13.75;38.15;102591.53;6068301;22;98112;-51
2023/02/28 07:58:27;;;;;;;1.00;0.60;;;14.10;91.80;;;13.80;37.32;102592.31;6074273;22;96954;-48
2023/02/28 08:00:53;;;;;;;0.90;0.20;;;14.20;88.30;;;13.83;37.69;102594.03;6057747;22;97606;-51
2023/02/28 08:03:22;;;;;;;0.47;0.20;;;14.20;91.10;;;13.86;38.25;102597.50;6065093;22;104577;-48
2023/02/28 08:05:48;;;;;;;0.43;0.40;;;14.20;91.20;;;13.91;37.55;102600.97;6087159;22;98377;-48
2023/02/28 08:08:16;;;;;;;0.47;0.30;;;14.30;91.00;;;13.95;37.15;102593.81;6065981;23;97818;-48
2023/02/28 08:10:43;;;;;;;0.20;0.20;;;14.30;84.50;;;13.91;37.36;102602.75;6066139;22;97272;-51
2023/02/28 08:13:09;;;;;;;0.30;0.27;;;14.20;84.50;;;13.92;37.82;102605.34;6066598;22;98484;-49
2023/02/28 08:15:36;;;;;;;0.33;0.27;;;14.30;91.30;;;13.95;37.93;102605.28;6064332;22;97425;-50
2023/02/28 08:18:02;;;;;;;1.13;0.40;;;14.30;91.00;;;13.97;37.69;102603.50;6066005;22;96842;-47
2023/02/28 08:20:28;;;;;;;0.40;0.20;;;14.30;90.80;;;14.02;37.28;102597.22;6067530;22;97630;-49
2023/02/28 08:22:54;;;;;;;0.27;0.27;;;14.30;90.10;;;13.98;38.37;102593.75;6060003;22;98892;-47
2023/02/28 08:25:20;;;;;;;0.73;0.40;;;14.40;91.40;;;14.00;37.32;102598.13;6064176;22;102377;-47
2023/02/28 08:27:46;;;;;;;0.50;0.50;;;14.40;88.70;;;14.05;36.77;102594.53;6060706;22;96607;-47
2023/02/28 08:30:14;;;;;;;0.50;0.40;;;14.40;85.50;;;14.09;37.38;102598.84;6069653;22;98033;-48
2023/02/28 08:32:40;;;;;;;0.63;0.20;;;14.40;90.20;;;14.10;36.93;102603.25;6086274;22;98177;-50
2023/02/28 08:35:08;;;;;;;0.20;0.20;;;14.50;88.50;;;14.08;37.61;102599.75;6066847;22;97390;-49
2023/02/28 08:37:35;;;;;;;0.13;0.13;;;14.50;90.50;;;14.09;37.05;102606.81;6064647;22;97519;-46
2023/02/28 08:40:01;;;;;;;0.33;0.33;;;14.50;89.20;;;14.11;37.60;102605.00;6069214;22;98338;-49
2023/02/28 08:42:27;;;;;;;0.30;0.20;;;14.50;90.30;;;14.11;37.25;102603.22;6071341;22;100688;-48
2023/02/28 08:44:53;;;;;;;0.60;0.20;;;14.50;90.10;;;14.16;37.06;102598.69;6066026;22;115176;-51
2023/02/28 08:47:19;;;;;;;0.33;0.30;;;14.60;90.00;;;14.22;36.70;102603.88;6068071;22;109422;-47
2023/02/28 08:49:44;;;;;;;0.30;0.30;;;14.60;86.60;;;14.17;36.96;102605.75;6068400;22;98697;-47
2023/02/28 08:52:10;;;;;;;0.30;0.30;;;14.40;88.70;;;14.10;38.20;102604.13;6093187;22;116570;-49
2023/02/28 08:54:36;;;;;;;0.57;0.27;;;14.50;90.80;;;14.09;38.50;102606.81;6067054;22;97405;-48
2023/02/28 08:57:03;;;;;;;0.67;0.30;;;14.50;91.00;;;14.13;37.66;102603.19;6070451;22;98046;-49
2023/02/28 08:59:29;;;;;;;0.97;0.20;;;14.60;90.60;;;14.11;38.05;102597.03;6068298;23;97419;-51
2023/02/28 09:01:55;;;;;;;0.47;0.23;;;14.60;90.30;;;14.13;38.18;102604.06;6065599;22;97918;-50
2023/02/28 09:04:21;;;;;;;0.47;0.27;;;14.60;90.40;;;14.15;37.68;102596.06;6073361;22;97354;-49
2023/02/28 09:06:48;;;;;;;0.50;0.33;;;14.60;90.30;;;14.18;33.68;102598.69;6087834;22;97028;-48
2023/02/28 09:09:15;;;;;;;0.80;0.37;;;14.60;81.90;;;14.22;37.65;102603.03;6071684;22;97887;-48
2023/02/28 09:11:41;;;;;;;0.27;0.27;;;14.70;90.60;;;14.27;36.67;102606.44;6067456;22;97982;-46
2023/02/28 09:14:07;;;;;;;0.40;0.20;;;14.70;88.70;;;14.19;37.62;102593.34;6090577;22;97249;-51
2023/02/28 09:16:34;;;;;;;1.03;0.53;;;14.60;90.10;;;14.19;37.89;102603.09;6071473;22;110144;-51
2023/02/28 09:19:01;;;;;;;0.20;0.20;;;14.60;90.30;;;14.28;36.91;102589.59;6066050;22;103704;-48
2023/02/28 09:21:27;;;;;;;0.63;0.40;;;14.70;89.00;;;14.30;36.44;102595.75;6069391;23;98459;-52
2023/02/28 09:23:53;;;;;;;0.30;0.23;;;14.70;87.80;;;14.26;37.34;102583.47;6063137;22;97338;-51
2023/02/28 09:26:27;;;;;;;1.50;0.27;;;14.70;90.00;;;14.25;36.04;102590.56;6072214;22;96818;-47
2023/02/28 09:28:54;;;;;;;1.00;0.47;;;14.60;84.80;;;14.23;36.27;102583.53;6063978;22;98528;-50
2023/02/28 09:31:25;;;;;;;0.40;0.20;;;14.50;86.80;;;14.26;36.45;102584.34;6073286;22;97500;-49
2023/02/28 09:33:54;;;;;;;0.50;0.23;;;14.60;87.90;;;14.20;38.07;102586.25;6059622;22;98289;-48
2023/02/28 09:36:21;;;;;;;0.23;0.10;;;14.60;90.30;;;14.21;37.30;102591.53;6071828;22;97637;-50
2023/02/28 09:38:49;;;;;;;0.93;0.30;;;14.60;89.40;;;14.26;36.58;102586.13;6073419;22;97547;-49
2023/02/28 09:41:31;;;;;;;0.20;0.20;;;14.60;88.60;;;14.28;36.12;102594.91;6071280;22;97240;-52
2023/02/28 09:44:02;;;;;;;0.30;0.20;;;14.60;84.90;;;14.25;37.36;102587.03;6059715;22;97199;-49
2023/02/28 09:46:45;;;;;;;0.37;0.30;;;14.50;89.40;;;14.14;37.80;102589.88;6068908;23;97721;-48
2023/02/28 09:49:19;;;;;;;0.40;0.20;;;14.40;90.00;;;14.20;36.66;102588.91;6065890;22;100552;-50
2023/02/28 09:52:05;;;;;;;0.73;0.30;;;14.50;88.90;;;14.20;37.97;102588.91;6090144;22;99113;-53
2023/02/28 09:54:32;;;;;;;1.60;0.50;;;14.60;90.00;;;14.21;34.89;102586.22;6068721;22;97847;-48
2023/02/28 09:57:22;;;;;;;0.20;0.20;;;14.50;75.60;;;14.22;37.04;102587.09;6066775;22;97452;-47
2023/02/28 10:00:10;;;;;;;0.30;0.30;;;14.60;88.80;;;14.22;37.79;102587.09;6063881;22;97154;-51
2023/02/28 10:03:09;;;;;;;0.20;0.20;;;14.60;89.50;;;14.21;37.76;102590.66;6066511;22;97491;-47
2023/02/28 10:05:58;;;;;;;0.17;0.13;;;14.60;89.60;;;14.29;36.60;102586.91;6069323;22;97641;-49
2023/02/28 10:08:45;;;;;;;0.73;0.30;;;14.70;87.30;;;14.28;37.49;102584.28;6072223;22;97511;-47
2023/02/28 10:11:15;;;;;;;0.53;0.27;;;14.70;88.70;;;14.27;37.89;102574.59;6063783;23;101771;-48
2023/02/28 10:14:05;;;;;;;0.20;0.20;;;14.70;89.60;;;14.35;36.11;102571.78;6065112;22;97137;-47
2023/02/28 10:16:35;;;;;;;0.83;0.30;;;14.80;86.80;;;14.33;35.89;102574.47;6069051;23;97770;-50
2023/02/28 10:19:10;;;;;;;0.17;0.10;;;14.70;83.30;;;14.34;36.74;102570.91;6064732;22;96891;-46
2023/02/28 10:21:42;;;;;;;0.70;0.20;;;14.70;86.90;;;14.35;36.39;102567.34;6062479;22;98569;-52
2023/02/28 10:24:21;;;;;;;0.57;0.20;;;14.70;86.40;;;14.36;36.15;102568.22;6066060;22;97510;-50
2023/02/28 10:26:48;;;;;;;0.23;0.20;;;14.60;84.70;;;14.36;36.03;102574.41;6057642;22;97765;-51
2023/02/28 10:29:15;;;;;;;0.70;0.23;;;14.70;86.60;;;14.29;37.07;102570.13;6075380;22;98043;-49